Time,TemperatureF,DewpointF,PressureIn,WindDirection,WindDirectionDegrees,WindSpeedMPH,WindSpeedGustMPH,Humidity,HourlyPrecipIn,Conditions,Clouds,dailyrainin,SoftwareType,DateUTC
2013-09-16 00:00:00,67.5,67.2,30.07,South,180,0.0,-999.0,99,-99.99,,,0.00,Acu-Link.com,2013-09-16 04:00:00,
2013-09-16 00:15:00,67.1,66.8,30.07,WNW,292,0.0,-999.0,99,-99.99,,,0.00,Acu-Link.com,2013-09-16 04:15:00,
2013-09-16 00:30:00,66.9,66.6,30.06,South,180,0.0,-999.0,99,-99.99,,,0.00,Acu-Link.com,2013-09-16 04:30:00,
2013-09-16 00:45:00,66.9,66.6,30.07,SSW,202,0.0,-999.0,99,-99.99,,,0.00,Acu-Link.com,2013-09-16 04:45:00,
2013-09-16 01:00:00,66.6,66.3,30.07,SSW,202,0.0,-999.0,99,-99.99,,,0.00,Acu-Link.com,2013-09-16 05:00:00,
2013-09-16 01:15:00,66.4,66.1,30.06,WNW,292,0.0,-999.0,99,-99.99,,,0.00,Acu-Link.com,2013-09-16 05:15:00,
2013-09-16 01:30:00,66.0,65.7,30.06,North,0,0.0,-999.0,99,-99.99,,,0.00,Acu-Link.com,2013-09-16 05:30:00,
2013-09-16 01:45:00,66.0,65.7,30.06,WNW,292,0.0,-999.0,99,-99.99,,,0.00,Acu-Link.com,2013-09-16 05:45:00,
2013-09-16 02:00:00,66.0,65.7,30.06,WNW,292,0.0,-999.0,99,-99.99,,,0.00,Acu-Link.com,2013-09-16 06:00:00,
2013-09-16 02:16:00,66.0,65.7,30.06,WNW,292,0.0,-999.0,99,-99.99,,,0.00,Acu-Link.com,2013-09-16 06:16:00,
2013-09-16 02:31:00,66.0,65.7,30.06,WNW,292,0.0,-999.0,99,-99.99,,,0.00,Acu-Link.com,2013-09-16 06:31:00,
2013-09-16 02:46:00,65.8,65.5,30.06,NNW,337,0.0,-999.0,99,-99.99,,,0.00,Acu-Link.com,2013-09-16 06:46:00,
2013-09-16 03:01:00,65.7,65.4,30.06,SSW,202,0.0,-999.0,99,-99.99,,,0.00,Acu-Link.com,2013-09-16 07:01:00,
2013-09-16 03:16:00,65.5,65.2,30.05,WNW,292,0.0,-999.0,99,-99.99,,,0.00,Acu-Link.com,2013-09-16 07:16:00,
2013-09-16 03:31:00,65.5,65.2,30.05,WNW,292,0.0,-999.0,99,-99.99,,,0.00,Acu-Link.com,2013-09-16 07:31:00,
2013-09-16 03:47:00,65.5,65.2,30.05,South,180,0.0,-999.0,99,-99.99,,,0.00,Acu-Link.com,2013-09-16 07:47:00,
2013-09-16 04:02:00,65.5,65.2,30.05,NNW,337,0.0,-999.0,99,-99.99,,,0.00,Acu-Link.com,2013-09-16 08:02:00,
2013-09-16 04:19:00,65.5,65.2,30.04,NNW,337,0.0,-999.0,99,-99.99,,,0.00,Acu-Link.com,2013-09-16 08:19:00,
2013-09-16 04:34:00,65.5,65.2,30.05,WNW,292,0.0,-999.0,99,-99.99,,,0.00,Acu-Link.com,2013-09-16 08:34:00,
2013-09-16 04:49:00,65.5,65.2,30.05,NE,45,1.1,-999.0,99,-99.99,,,0.00,Acu-Link.com,2013-09-16 08:49:00,
2013-09-16 05:04:00,65.5,65.2,30.04,NNE,22,0.0,-999.0,99,-99.99,,,0.00,Acu-Link.com,2013-09-16 09:04:00,
2013-09-16 05:19:00,65.5,65.2,30.04,NW,315,0.0,-999.0,99,-99.99,,,0.00,Acu-Link.com,2013-09-16 09:19:00,
2013-09-16 05:34:00,65.5,65.2,30.05,NNW,337,0.0,-999.0,99,-99.99,,,0.00,Acu-Link.com,2013-09-16 09:34:00,
2013-09-16 05:49:00,65.1,64.8,30.04,SW,225,0.0,-999.0,99,-99.99,,,0.00,Acu-Link.com,2013-09-16 09:49:00,
2013-09-16 06:05:00,64.9,64.6,30.05,NNW,337,0.0,-999.0,99,-99.99,,,0.00,Acu-Link.com,2013-09-16 10:05:00,
2013-09-16 06:20:00,64.9,64.6,30.04,NNW,337,0.0,-999.0,99,-99.99,,,0.00,Acu-Link.com,2013-09-16 10:20:00,
2013-09-16 06:35:00,64.8,64.5,30.04,South,180,0.0,-999.0,99,-99.99,,,0.00,Acu-Link.com,2013-09-16 10:35:00,
2013-09-16 06:50:00,64.8,64.5,30.05,SSW,202,0.0,-999.0,99,-99.99,,,0.00,Acu-Link.com,2013-09-16 10:50:00,
2013-09-16 07:05:00,64.6,64.3,30.04,NNW,337,0.0,-999.0,99,-99.99,,,0.00,Acu-Link.com,2013-09-16 11:05:00,
2013-09-16 07:20:00,64.6,64.3,30.06,SSE,157,0.0,-999.0,99,-99.99,,,0.00,Acu-Link.com,2013-09-16 11:20:00,
2013-09-16 07:35:00,64.4,64.1,30.05,WSW,247,0.0,-999.0,99,-99.99,,,0.00,Acu-Link.com,2013-09-16 11:35:00,
2013-09-16 07:50:00,64.4,64.1,30.06,SSE,157,0.0,-999.0,99,-99.99,,,0.00,Acu-Link.com,2013-09-16 11:50:00,
2013-09-16 08:06:00,64.6,64.3,30.06,South,180,0.0,-999.0,99,-99.99,,,0.00,Acu-Link.com,2013-09-16 12:06:00,
2013-09-16 08:21:00,64.8,64.5,30.06,East,90,0.0,-999.0,99,-99.99,,,0.00,Acu-Link.com,2013-09-16 12:21:00,
2013-09-16 08:36:00,65.5,65.2,30.06,West,270,0.0,-999.0,99,-99.99,,,0.00,Acu-Link.com,2013-09-16 12:36:00,
2013-09-16 08:51:00,66.4,66.1,30.06,West,270,0.0,-999.0,99,-99.99,,,0.00,Acu-Link.com,2013-09-16 12:51:00,
2013-09-16 09:06:00,67.3,66.7,30.07,West,270,0.0,-999.0,98,-99.99,,,0.00,Acu-Link.com,2013-09-16 13:06:00,
2013-09-16 09:21:00,68.4,67.5,30.07,West,270,0.0,-999.0,97,-99.99,,,0.00,Acu-Link.com,2013-09-16 13:21:00,
2013-09-16 09:36:00,69.8,68.0,30.06,SW,225,0.0,-999.0,94,-99.99,,,0.00,Acu-Link.com,2013-09-16 13:36:00,
2013-09-16 09:52:00,71.4,67.7,30.07,ENE,67,1.7,-999.0,88,-99.99,,,0.00,Acu-Link.com,2013-09-16 13:52:00,
2013-09-16 10:07:00,72.3,69.5,30.06,SW,225,0.0,-999.0,91,-99.99,,,0.00,Acu-Link.com,2013-09-16 14:07:00,
2013-09-16 10:22:00,73.8,69.0,30.07,SSE,157,0.0,-999.0,85,-99.99,,,0.00,Acu-Link.com,2013-09-16 14:22:00,
2013-09-16 10:37:00,74.7,69.2,30.07,West,270,0.0,-999.0,83,-99.99,,,0.00,Acu-Link.com,2013-09-16 14:37:00,
2013-09-16 10:52:00,75.6,69.0,30.07,West,270,1.7,-999.0,80,-99.99,,,0.00,Acu-Link.com,2013-09-16 14:52:00,
2013-09-16 11:07:00,76.6,68.8,30.06,ESE,112,1.1,-999.0,77,-99.99,,,0.00,Acu-Link.com,2013-09-16 15:07:00,
2013-09-16 11:22:00,77.9,69.3,30.06,WNW,292,0.0,-999.0,75,-99.99,,,0.00,Acu-Link.com,2013-09-16 15:22:00,
2013-09-16 11:37:00,79.2,70.6,30.06,NW,315,0.0,-999.0,75,-99.99,,,0.00,Acu-Link.com,2013-09-16 15:37:00,
2013-09-16 11:52:00,79.9,70.0,30.06,NNW,337,1.7,-999.0,72,-99.99,,,0.00,Acu-Link.com,2013-09-16 15:52:00,
2013-09-16 12:08:00,81.0,70.3,30.06,East,90,2.7,-999.0,70,-99.99,,,0.00,Acu-Link.com,2013-09-16 16:08:00,
2013-09-16 12:23:00,79.9,70.5,30.05,South,180,0.0,-999.0,73,-99.99,,,0.00,Acu-Link.com,2013-09-16 16:23:00,
2013-09-16 12:38:00,82.6,71.4,30.05,East,90,0.0,-999.0,69,-99.99,,,0.00,Acu-Link.com,2013-09-16 16:38:00,
2013-09-16 12:53:00,80.6,68.6,30.05,WNW,292,1.7,-999.0,67,-99.99,,,0.00,Acu-Link.com,2013-09-16 16:53:00,
2013-09-16 13:08:00,82.4,69.9,30.04,South,180,0.0,-999.0,66,-99.99,,,0.00,Acu-Link.com,2013-09-16 17:08:00,
2013-09-16 13:23:00,83.5,67.6,30.04,ESE,112,2.2,-999.0,59,-99.99,,,0.00,Acu-Link.com,2013-09-16 17:23:00,
2013-09-16 13:38:00,82.9,66.1,30.03,NNE,22,0.0,-999.0,57,-99.99,,,0.00,Acu-Link.com,2013-09-16 17:38:00,
2013-09-16 13:53:00,88.0,64.6,30.02,SSE,157,0.0,-999.0,46,-99.99,,,0.00,Acu-Link.com,2013-09-16 17:53:00,
2013-09-16 14:08:00,88.0,64.6,30.02,East,90,1.1,-999.0,46,-99.99,,,0.00,Acu-Link.com,2013-09-16 18:08:00,
2013-09-16 14:24:00,86.0,65.7,30.01,West,270,1.7,-999.0,51,-99.99,,,0.00,Acu-Link.com,2013-09-16 18:24:00,
2013-09-16 14:39:00,84.2,65.7,30.00,NW,315,1.7,-999.0,54,-99.99,,,0.00,Acu-Link.com,2013-09-16 18:39:00,
2013-09-16 14:54:00,83.5,65.6,30.00,West,270,1.7,-999.0,55,-99.99,,,0.00,Acu-Link.com,2013-09-16 18:54:00,
2013-09-16 15:09:00,86.5,64.4,29.99,NNW,337,2.2,-999.0,48,-99.99,,,0.00,Acu-Link.com,2013-09-16 19:09:00,
2013-09-16 15:24:00,86.4,65.5,29.99,SSW,202,1.7,-999.0,50,-99.99,,,0.00,Acu-Link.com,2013-09-16 19:24:00,
2013-09-16 15:39:00,86.7,65.2,29.98,West,270,1.1,-999.0,49,-99.99,,,0.00,Acu-Link.com,2013-09-16 19:39:00,
2013-09-16 15:54:00,86.0,66.3,29.97,ESE,112,0.0,-999.0,52,-99.99,,,0.00,Acu-Link.com,2013-09-16 19:54:00,
2013-09-16 16:09:00,84.7,66.2,29.96,NW,315,1.7,-999.0,54,-99.99,,,0.00,Acu-Link.com,2013-09-16 20:09:00,
2013-09-16 16:24:00,84.7,64.5,29.97,West,270,0.0,-999.0,51,-99.99,,,0.00,Acu-Link.com,2013-09-16 20:24:00,
2013-09-16 16:40:00,84.6,67.1,29.96,South,180,0.0,-999.0,56,-99.99,,,0.00,Acu-Link.com,2013-09-16 20:40:00,
2013-09-16 16:55:00,83.8,66.9,29.96,SW,225,0.0,-999.0,57,-99.99,,,0.00,Acu-Link.com,2013-09-16 20:55:00,
2013-09-16 17:10:00,82.9,66.6,29.96,West,270,0.0,-999.0,58,-99.99,,,0.00,Acu-Link.com,2013-09-16 21:10:00,
2013-09-16 17:25:00,82.4,66.6,29.97,West,270,0.0,-999.0,59,-99.99,,,0.00,Acu-Link.com,2013-09-16 21:25:00,
2013-09-16 17:40:00,81.3,67.5,29.96,SSW,202,0.0,-999.0,63,-99.99,,,0.00,Acu-Link.com,2013-09-16 21:40:00,
2013-09-16 17:55:00,80.8,66.1,29.96,SSW,202,0.0,-999.0,61,-99.99,,,0.00,Acu-Link.com,2013-09-16 21:55:00,
2013-09-16 18:10:00,79.9,66.2,29.96,South,180,0.0,-999.0,63,-99.99,,,0.00,Acu-Link.com,2013-09-16 22:10:00,
2013-09-16 18:25:00,79.7,66.4,29.96,South,180,0.0,-999.0,64,-99.99,,,0.00,Acu-Link.com,2013-09-16 22:25:00,
2013-09-16 18:40:00,79.0,66.2,29.96,South,180,0.0,-999.0,65,-99.99,,,0.00,Acu-Link.com,2013-09-16 22:40:00,
2013-09-16 18:55:00,78.4,67.4,29.97,South,180,0.0,-999.0,69,-99.99,,,0.00,Acu-Link.com,2013-09-16 22:55:00,
2013-09-16 19:11:00,77.7,67.5,29.97,South,180,0.0,-999.0,71,-99.99,,,0.00,Acu-Link.com,2013-09-16 23:11:00,
2013-09-16 19:26:00,77.0,67.7,29.98,South,180,0.0,-999.0,73,-99.99,,,0.00,Acu-Link.com,2013-09-16 23:26:00,
2013-09-16 19:41:00,76.1,68.0,29.97,South,180,0.0,-999.0,76,-99.99,,,0.00,Acu-Link.com,2013-09-16 23:41:00,
2013-09-16 19:56:00,75.2,66.7,29.98,South,180,0.0,-999.0,75,-99.99,,,0.00,Acu-Link.com,2013-09-16 23:56:00,
2013-09-16 20:11:00,74.3,67.7,29.99,South,180,0.0,-999.0,80,-99.99,,,0.00,Acu-Link.com,2013-09-17 00:11:00,
2013-09-16 20:26:00,73.9,68.0,29.99,South,180,0.0,-999.0,82,-99.99,,,0.00,Acu-Link.com,2013-09-17 00:26:00,
2013-09-16 20:42:00,73.2,68.8,30.00,South,180,0.0,-999.0,86,-99.99,,,0.00,Acu-Link.com,2013-09-17 00:42:00,
2013-09-16 20:57:00,72.9,69.1,30.00,South,180,0.0,-999.0,88,-99.99,,,0.00,Acu-Link.com,2013-09-17 00:57:00,
2013-09-16 21:12:00,72.9,69.1,30.01,WNW,292,0.0,-999.0,88,-99.99,,,0.00,Acu-Link.com,2013-09-17 01:12:00,
2013-09-16 21:27:00,72.7,68.6,30.02,South,180,0.0,-999.0,87,-99.99,,,0.00,Acu-Link.com,2013-09-17 01:27:00,
2013-09-16 21:42:00,72.5,69.1,30.02,WNW,292,0.0,-999.0,89,-99.99,,,0.00,Acu-Link.com,2013-09-17 01:42:00,
2013-09-16 21:57:00,72.3,67.9,30.03,WNW,292,0.0,-999.0,86,-99.99,,,0.00,Acu-Link.com,2013-09-17 01:57:00,
2013-09-16 22:12:00,72.1,66.6,30.03,WSW,247,0.0,-999.0,83,-99.99,,,0.00,Acu-Link.com,2013-09-17 02:12:00,
2013-09-16 22:28:00,72.1,67.0,30.03,WSW,247,0.0,-999.0,84,-99.99,,,0.00,Acu-Link.com,2013-09-17 02:28:00,
2013-09-16 22:43:00,72.0,67.6,30.03,South,180,0.0,-999.0,86,-99.99,,,0.00,Acu-Link.com,2013-09-17 02:43:00,
2013-09-16 22:58:00,72.0,66.2,30.04,South,180,0.0,-999.0,82,-99.99,,,0.00,Acu-Link.com,2013-09-17 02:58:00,
2013-09-16 23:13:00,72.0,66.5,30.03,West,270,1.1,-999.0,83,-99.99,,,0.00,Acu-Link.com,2013-09-17 03:13:00,
2013-09-16 23:28:00,72.0,65.5,30.04,West,270,0.0,-999.0,80,-99.99,,,0.00,Acu-Link.com,2013-09-17 03:28:00,
2013-09-16 23:43:00,72.0,64.8,30.04,WSW,247,0.0,-999.0,78,-99.99,,,0.00,Acu-Link.com,2013-09-17 03:43:00,
2013-09-16 23:58:00,72.3,63.9,30.05,SSW,202,0.0,-999.0,75,-99.99,,,0.00,Acu-Link.com,2013-09-17 03:58:00,